Time;durP1;ratioP1;P1;durP2;ratioP2;P2;SDS_P1;SDS_P2;PMS_P1;PMS_P2;Temp;Humidity;BMP_temperature;BMP_pressure;BME280_temperature;BME280_humidity;BME280_pressure;Samples;Min_cycle;Max_cycle;Signal;HPM_P1;HPM_P2
2023/11/29 00:00:27;;;;;;;17.25;9.32;;;-1.30;99.90;;;;;;5034792;28;20056;-67
2023/11/29 00:02:59;;;;;;;13.23;8.75;;;-1.30;99.90;;;;;;5039948;28;20474;-66
2023/11/29 00:05:31;;;;;;;16.40;9.50;;;-1.30;99.90;;;;;;5060663;28;20040;-67
2023/11/29 00:07:58;;;;;;;13.98;9.15;;;-1.30;99.90;;;;;;5058430;28;20033;-66
2023/11/29 00:10:30;;;;;;;13.57;8.30;;;-1.30;99.90;;;;;;5055880;28;20522;-67
2023/11/29 00:12:57;;;;;;;12.52;8.85;;;-1.30;99.90;;;;;;5057540;28;20385;-67
2023/11/29 00:15:29;;;;;;;15.20;9.75;;;-1.20;99.90;;;;;;5039681;28;20149;-66
2023/11/29 00:18:01;;;;;;;12.98;9.23;;;-1.10;99.90;;;;;;5063474;28;20057;-67
2023/11/29 00:20:32;;;;;;;16.13;9.18;;;-1.20;99.90;;;;;;5064710;28;20052;-67
2023/11/29 00:23:04;;;;;;;12.70;9.43;;;-1.20;99.90;;;;;;5048377;28;20044;-67
2023/11/29 00:25:31;;;;;;;13.27;9.05;;;-1.20;99.90;;;;;;5049908;28;20044;-67
2023/11/29 00:28:03;;;;;;;12.35;8.38;;;-1.20;99.90;;;;;;5052658;28;20037;-67
2023/11/29 00:30:36;;;;;;;14.63;8.98;;;-1.20;99.90;;;;;;5052353;28;20116;-67
2023/11/29 00:33:08;;;;;;;12.38;8.60;;;-1.20;99.90;;;;;;5055249;28;20037;-67
2023/11/29 00:35:40;;;;;;;13.10;9.27;;;-1.30;99.90;;;;;;5045377;28;20534;-67
2023/11/29 00:38:12;;;;;;;11.05;8.27;;;-1.30;99.90;;;;;;5025682;28;20055;-66
2023/11/29 00:40:44;;;;;;;16.98;9.80;;;-1.50;99.90;;;;;;5041130;28;20057;-66
2023/11/29 00:43:15;;;;;;;13.68;9.00;;;-1.70;99.90;;;;;;5028190;28;20405;-66
2023/11/29 00:45:47;;;;;;;14.65;9.23;;;-1.90;99.90;;;;;;5042502;28;20049;-66
2023/11/29 00:48:20;;;;;;;14.10;9.07;;;-1.90;99.90;;;;;;5043087;28;20416;-66
2023/11/29 00:50:52;;;;;;;14.55;9.95;;;-1.90;99.90;;;;;;5031886;28;20041;-67
2023/11/29 00:53:24;;;;;;;16.00;10.00;;;-1.90;99.90;;;;;;5043158;28;20427;-67
2023/11/29 00:55:56;;;;;;;15.52;9.57;;;-1.90;99.90;;;;;;5052904;28;20057;-66
2023/11/29 00:58:28;;;;;;;17.25;10.82;;;-1.90;99.90;;;;;;5031326;28;20045;-67
2023/11/29 01:01:00;;;;;;;16.73;9.65;;;-1.90;99.90;;;;;;5036142;28;20131;-67
2023/11/29 01:03:32;;;;;;;15.85;10.32;;;-1.90;99.90;;;;;;5043370;28;20082;-67
2023/11/29 01:06:04;;;;;;;17.05;10.63;;;-1.90;99.90;;;;;;5039095;28;20037;-67
2023/11/29 01:08:36;;;;;;;16.67;10.05;;;-1.90;99.90;;;;;;5055998;28;20036;-67
2023/11/29 01:11:09;;;;;;;19.17;10.85;;;-1.90;99.90;;;;;;5042112;28;20059;-66
2023/11/29 01:13:41;;;;;;;18.60;10.70;;;-1.90;99.90;;;;;;5044210;28;20041;-67
2023/11/29 01:16:07;;;;;;;16.65;9.80;;;-2.00;99.90;;;;;;5044393;28;20090;-67
2023/11/29 01:18:43;;;;;;;16.52;9.85;;;-2.00;99.90;;;;;;5043036;28;20044;-66
2023/11/29 01:21:14;;;;;;;17.20;9.98;;;-2.00;99.90;;;;;;5024844;28;20103;-66
2023/11/29 01:23:41;;;;;;;15.38;9.75;;;-2.00;99.90;;;;;;5011629;28;20148;-67
2023/11/29 01:26:13;;;;;;;18.55;10.68;;;-2.00;99.90;;;;;;5052785;28;20072;-67
2023/11/29 01:28:44;;;;;;;15.80;9.52;;;-2.00;99.90;;;;;;5053241;28;20123;-67
2023/11/29 01:31:18;;;;;;;17.58;10.10;;;-1.90;99.90;;;;;;5036040;28;20041;-67
2023/11/29 01:33:50;;;;;;;15.30;9.80;;;-1.90;99.90;;;;;;5036580;28;20261;-67
2023/11/29 01:36:23;;;;;;;14.60;8.73;;;-1.90;99.90;;;;;;5050606;28;20052;-67
2023/11/29 01:38:55;;;;;;;14.77;9.65;;;-2.00;99.90;;;;;;5045788;28;20086;-67
2023/11/29 01:41:27;;;;;;;16.23;10.00;;;-2.00;99.90;;;;;;5025489;28;20048;-67
2023/11/29 01:43:58;;;;;;;13.38;8.82;;;-2.00;99.90;;;;;;5038233;28;20045;-67
2023/11/29 01:46:30;;;;;;;14.07;8.88;;;-2.00;99.90;;;;;;5044188;28;20048;-67
2023/11/29 01:48:57;;;;;;;17.17;10.02;;;-2.00;99.90;;;;;;5062489;28;20033;-66
2023/11/29 01:51:30;;;;;;;15.90;9.98;;;-2.00;99.90;;;;;;5032146;28;20051;-67
2023/11/29 01:54:03;;;;;;;15.50;9.85;;;-2.00;99.90;;;;;;5048968;28;20059;-67
2023/11/29 01:56:30;;;;;;;14.55;8.90;;;-2.00;99.90;;;;;;5068527;28;20036;-68
2023/11/29 01:59:02;;;;;;;17.95;9.88;;;-2.00;99.90;;;;;;5034855;28;20053;-67
2023/11/29 02:01:34;;;;;;;16.20;9.18;;;-2.10;99.90;;;;;;5034173;28;20056;-67
2023/11/29 02:04:06;;;;;;;15.05;9.52;;;-2.10;99.90;;;;;;5035026;28;20041;-67
2023/11/29 02:06:41;;;;;;;15.95;9.77;;;-2.10;99.90;;;;;;5051367;28;20048;-67
2023/11/29 02:09:13;;;;;;;15.40;9.80;;;-2.10;99.90;;;;;;5019190;28;20065;-68
2023/11/29 02:11:46;;;;;;;16.05;9.45;;;-2.10;99.90;;;;;;5040309;28;20047;-67
2023/11/29 02:14:13;;;;;;;17.55;10.40;;;-2.10;99.90;;;;;;5044167;28;20075;-67
2023/11/29 02:16:40;;;;;;;17.08;9.85;;;-2.00;99.90;;;;;;5044131;28;20110;-66
2023/11/29 02:19:12;;;;;;;16.33;9.88;;;-2.00;99.90;;;;;;5060206;28;20048;-67
2023/11/29 02:21:44;;;;;;;18.15;10.23;;;-2.00;99.90;;;;;;5026622;28;20051;-66
2023/11/29 02:24:24;;;;;;;17.98;10.48;;;-1.90;99.90;;;;;;5031707;28;20051;-67
2023/11/29 02:26:55;;;;;;;16.50;9.68;;;-1.90;99.90;;;;;;5015339;28;20145;-67
2023/11/29 02:29:28;;;;;;;19.25;11.27;;;-1.80;99.90;;;;;;5036060;28;20041;-67
2023/11/29 02:32:00;;;;;;;17.85;10.82;;;-1.80;99.90;;;;;;5037604;28;20040;-67
2023/11/29 02:34:27;;;;;;;20.60;12.07;;;-1.70;99.90;;;;;;5052606;28;20086;-67
2023/11/29 02:36:58;;;;;;;19.80;11.55;;;-1.70;99.90;;;;;;5017620;28;20399;-67
2023/11/29 02:39:30;;;;;;;18.15;10.48;;;-1.70;99.90;;;;;;5022373;28;20056;-67
2023/11/29 02:42:02;;;;;;;21.27;10.73;;;-1.70;99.90;;;;;;5042128;28;20052;-70
2023/11/29 02:44:34;;;;;;;17.95;10.27;;;-1.70;99.90;;;;;;5029816;28;20044;-67
2023/11/29 02:47:06;;;;;;;18.80;10.82;;;-1.70;99.90;;;;;;5059047;28;20051;-67
2023/11/29 02:49:38;;;;;;;16.95;10.05;;;-1.60;99.90;;;;;;5041425;28;20050;-67
2023/11/29 02:52:10;;;;;;;16.98;10.30;;;-1.50;99.90;;;;;;5058727;28;20044;-67
2023/11/29 02:54:42;;;;;;;16.60;9.85;;;-1.50;99.90;;;;;;5039850;28;20505;-67
2023/11/29 02:57:09;;;;;;;16.02;9.73;;;-1.50;99.90;;;;;;5037897;28;20139;-67
2023/11/29 02:59:41;;;;;;;18.38;10.60;;;-1.50;99.90;;;;;;5020345;28;20440;-67
2023/11/29 03:02:14;;;;;;;16.70;10.07;;;-1.50;99.90;;;;;;5040687;28;20144;-67
2023/11/29 03:04:46;;;;;;;15.53;9.13;;;-1.50;99.90;;;;;;5034050;28;20044;-67
2023/11/29 03:07:18;;;;;;;15.98;9.18;;;-1.40;99.90;;;;;;5035314;28;20126;-67
2023/11/29 03:09:45;;;;;;;14.55;8.48;;;-1.40;99.90;;;;;;5036635;28;20116;-67
2023/11/29 03:12:16;;;;;;;15.32;9.30;;;-1.40;99.90;;;;;;5038118;28;20049;-67
2023/11/29 03:14:48;;;;;;;14.55;9.30;;;-1.40;99.90;;;;;;5045260;28;20048;-67
2023/11/29 03:17:20;;;;;;;15.40;8.38;;;-1.30;99.90;;;;;;5057167;28;20063;-67
2023/11/29 03:19:47;;;;;;;12.85;7.93;;;-1.30;99.90;;;;;;5042978;28;20053;-67
2023/11/29 03:22:19;;;;;;;13.18;8.25;;;-1.30;99.90;;;;;;5033524;28;20535;-66
2023/11/29 03:24:51;;;;;;;14.45;7.95;;;-1.40;99.90;;;;;;5039145;28;20052;-67
2023/11/29 03:27:23;;;;;;;13.93;7.90;;;-1.40;99.90;;;;;;5031387;28;20045;-66
2023/11/29 03:29:55;;;;;;;13.15;7.53;;;-1.40;99.90;;;;;;5015645;28;20129;-67
2023/11/29 03:32:22;;;;;;;14.52;7.53;;;-1.50;99.90;;;;;;5017747;28;20135;-67
2023/11/29 03:34:54;;;;;;;13.48;7.53;;;-1.40;99.90;;;;;;5032664;28;20053;-67
2023/11/29 03:37:28;;;;;;;;;;;-1.50;99.90;;;;;;5019090;28;20044;-66
2023/11/29 03:40:00;;;;;;;13.35;7.85;;;-1.50;99.90;;;;;;5025687;28;19932;-66
2023/11/29 03:42:31;;;;;;;11.45;6.93;;;-1.50;99.90;;;;;;5037171;28;20053;-67
2023/11/29 03:45:04;;;;;;;13.63;7.88;;;-1.40;99.90;;;;;;5045310;28;20066;-67
2023/11/29 03:47:36;;;;;;;15.20;8.63;;;-1.50;99.90;;;;;;5038473;28;20066;-67
2023/11/29 03:50:08;;;;;;;15.82;8.73;;;-1.50;99.90;;;;;;5060093;28;20039;-67
2023/11/29 03:52:40;;;;;;;15.18;8.30;;;-1.50;99.90;;;;;;5062033;28;20083;-67
2023/11/29 03:55:07;;;;;;;12.63;7.13;;;-1.50;99.90;;;;;;5044811;28;20033;-67
2023/11/29 03:57:40;;;;;;;12.88;7.90;;;-1.50;99.90;;;;;;5017254;28;20681;-67
2023/11/29 04:00:08;;;;;;;12.98;6.80;;;-1.50;99.90;;;;;;5035741;28;20139;-67
2023/11/29 04:02:40;;;;;;;11.70;7.15;;;-1.50;99.90;;;;;;5034110;28;20059;-67
2023/11/29 04:05:12;;;;;;;12.40;6.60;;;-1.50;99.90;;;;;;5065589;28;20379;-67
2023/11/29 04:07:44;;;;;;;12.45;7.38;;;-1.50;99.90;;;;;;5051960;28;20041;-67
2023/11/29 04:10:16;;;;;;;13.30;7.78;;;-1.50;99.90;;;;;;5038249;28;20041;-67
2023/11/29 04:12:48;;;;;;;11.68;7.28;;;-1.50;99.90;;;;;;5040030;28;20051;-67
2023/11/29 04:15:15;;;;;;;14.00;7.72;;;-1.50;99.90;;;;;;5025483;28;20047;-67
2023/11/29 04:17:47;;;;;;;11.35;6.13;;;-1.50;99.90;;;;;;5034468;28;20046;-67
2023/11/29 04:20:19;;;;;;;12.85;7.72;;;-1.50;99.90;;;;;;5047813;28;20041;-67
2023/11/29 04:22:49;;;;;;;14.00;7.80;;;-1.60;99.90;;;;;;5046608;28;20040;-67
2023/11/29 04:25:21;;;;;;;14.32;8.00;;;-1.60;99.90;;;;;;5048775;28;20041;-67
2023/11/29 04:27:52;;;;;;;12.77;7.50;;;-1.60;99.90;;;;;;5043037;28;20049;-67
2023/11/29 04:30:26;;;;;;;13.30;7.57;;;-1.60;99.90;;;;;;5055466;28;20037;-67
2023/11/29 04:32:58;;;;;;;13.68;7.32;;;-1.60;99.90;;;;;;5064405;28;20056;-66
2023/11/29 04:35:25;;;;;;;12.82;7.22;;;-1.60;99.90;;;;;;5036410;28;20095;-67
2023/11/29 04:37:57;;;;;;;12.30;7.10;;;-1.60;99.90;;;;;;5020415;28;20045;-67
2023/11/29 04:40:29;;;;;;;12.40;7.18;;;-1.60;99.90;;;;;;5037616;28;20199;-67
2023/11/29 04:43:01;;;;;;;10.93;6.13;;;-1.60;99.90;;;;;;5057122;28;20578;-66
2023/11/29 04:45:28;;;;;;;10.32;6.65;;;-1.70;99.90;;;;;;5049005;28;20056;-67
2023/11/29 04:48:00;;;;;;;12.13;6.63;;;-1.70;99.90;;;;;;5055070;28;20470;-67
2023/11/29 04:50:32;;;;;;;12.18;7.20;;;-1.60;99.90;;;;;;5043843;28;20127;-67
2023/11/29 04:53:04;;;;;;;13.07;7.88;;;-1.60;99.90;;;;;;5043844;28;20044;-67
2023/11/29 04:55:31;;;;;;;11.30;6.50;;;-1.60;99.90;;;;;;5042412;28;20037;-67
2023/11/29 04:58:03;;;;;;;13.10;7.18;;;-1.60;99.90;;;;;;5059334;28;20045;-67
2023/11/29 05:00:35;;;;;;;11.52;6.57;;;-1.60;99.90;;;;;;5043389;28;20056;-67
2023/11/29 05:03:07;;;;;;;14.10;7.57;;;-1.60;99.90;;;;;;5039549;28;20143;-68
2023/11/29 05:05:34;;;;;;;12.15;6.88;;;-1.70;99.90;;;;;;5053749;28;20049;-67
2023/11/29 05:08:06;;;;;;;13.95;7.15;;;-1.70;99.90;;;;;;5043565;28;20037;-67
2023/11/29 05:10:38;;;;;;;12.25;7.20;;;-1.70;99.90;;;;;;5057065;28;20119;-67
2023/11/29 05:13:06;;;;;;;13.20;7.40;;;-1.70;99.90;;;;;;5037299;28;20044;-67
2023/11/29 05:15:41;;;;;;;13.43;7.68;;;-1.70;99.90;;;;;;5043021;28;20047;-67
2023/11/29 05:18:13;;;;;;;15.10;7.93;;;-1.70;99.90;;;;;;5038409;28;20067;-68
2023/11/29 05:20:40;;;;;;;14.60;7.70;;;-1.70;99.90;;;;;;5045098;28;20044;-67
2023/11/29 05:23:07;;;;;;;13.95;8.02;;;-1.70;99.90;;;;;;5044310;28;20532;-68
2023/11/29 05:25:39;;;;;;;14.10;8.35;;;-1.70;99.90;;;;;;5059138;28;20048;-67
2023/11/29 05:28:06;;;;;;;16.38;8.30;;;-1.70;99.90;;;;;;5060640;28;20450;-66
2023/11/29 05:30:38;;;;;;;11.55;6.07;;;-1.80;99.90;;;;;;5058676;28;20036;-67
2023/11/29 05:33:07;;;;;;;14.70;7.80;;;-1.70;99.90;;;;;;5034348;28;20044;-66
2023/11/29 05:35:39;;;;;;;16.27;8.10;;;-1.70;99.90;;;;;;5047717;28;20048;-67
2023/11/29 05:38:11;;;;;;;14.45;8.18;;;-1.70;99.90;;;;;;5027081;28;20057;-67
2023/11/29 05:40:44;;;;;;;13.15;7.82;;;-1.70;99.90;;;;;;5053237;28;20045;-67
2023/11/29 05:43:11;;;;;;;14.45;7.72;;;-1.80;99.90;;;;;;5059752;28;20037;-67
2023/11/29 05:45:43;;;;;;;15.02;8.73;;;-1.80;99.90;;;;;;5042455;28;20128;-67
2023/11/29 05:48:10;;;;;;;16.63;8.90;;;-1.80;99.90;;;;;;5056655;28;20552;-66
2023/11/29 05:50:42;;;;;;;14.10;8.07;;;-1.90;99.90;;;;;;5040258;28;20428;-67
2023/11/29 05:53:17;;;;;;;16.02;8.57;;;-1.90;99.90;;;;;;5060405;28;20124;-67
2023/11/29 05:55:49;;;;;;;15.52;8.40;;;-1.90;99.90;;;;;;5040023;28;20052;-67
2023/11/29 05:58:16;;;;;;;15.77;8.48;;;-1.80;99.90;;;;;;5057830;28;20105;-68
2023/11/29 06:00:48;;;;;;;15.63;8.02;;;-1.90;99.90;;;;;;5037682;28;20511;-67
2023/11/29 06:03:15;;;;;;;16.92;8.90;;;-1.80;99.90;;;;;;5036864;28;20036;-67
2023/11/29 06:05:47;;;;;;;20.20;10.48;;;-1.80;99.90;;;;;;5049679;28;20036;-67
2023/11/29 06:08:19;;;;;;;17.30;9.48;;;-1.80;99.90;;;;;;5051700;28;20786;-67
2023/11/29 06:10:51;;;;;;;15.43;9.18;;;-1.80;99.90;;;;;;5051370;28;20040;-67
2023/11/29 06:13:23;;;;;;;17.52;9.95;;;-1.80;99.90;;;;;;5047486;28;20543;-67
2023/11/29 06:15:55;;;;;;;18.48;9.18;;;-1.80;99.90;;;;;;5055138;28;20040;-67
2023/11/29 06:18:28;;;;;;;19.20;9.30;;;-1.80;99.90;;;;;;5030640;28;20044;-67
2023/11/29 06:21:00;;;;;;;16.63;9.25;;;-1.70;99.90;;;;;;5040419;28;20049;-67
2023/11/29 06:23:27;;;;;;;20.27;9.68;;;-1.70;99.90;;;;;;5060240;28;20072;-67
2023/11/29 06:25:59;;;;;;;17.17;9.10;;;-1.70;99.90;;;;;;5040165;28;20053;-67
2023/11/29 06:28:31;;;;;;;16.05;9.27;;;-1.80;99.90;;;;;;5038378;28;20124;-67
2023/11/29 06:31:05;;;;;;;17.15;9.20;;;-1.70;99.90;;;;;;5046684;28;20041;-65
2023/11/29 06:33:37;;;;;;;17.05;8.90;;;-1.70;99.90;;;;;;5029736;28;20045;-67
2023/11/29 06:36:09;;;;;;;15.40;8.73;;;-1.70;99.90;;;;;;5029398;28;20558;-67
2023/11/29 06:38:42;;;;;;;15.60;9.45;;;-1.70;99.90;;;;;;5040178;28;20049;-67
2023/11/29 06:41:15;;;;;;;13.38;8.13;;;-1.70;99.90;;;;;;5032554;28;20052;-67
2023/11/29 06:43:47;;;;;;;13.23;8.35;;;-1.70;99.90;;;;;;5018855;28;20102;-67
2023/11/29 06:46:19;;;;;;;13.45;8.27;;;-1.70;99.90;;;;;;5037498;28;20044;-67
2023/11/29 06:48:46;;;;;;;14.77;8.82;;;-1.70;99.90;;;;;;5037337;28;20071;-67
2023/11/29 06:51:13;;;;;;;14.55;8.18;;;-1.70;99.90;;;;;;5060199;28;20102;-68
2023/11/29 06:53:45;;;;;;;12.77;7.90;;;-1.70;99.90;;;;;;5041052;28;20041;-66
2023/11/29 06:56:17;;;;;;;14.38;8.40;;;-1.70;99.90;;;;;;5038683;28;20033;-67
2023/11/29 06:58:49;;;;;;;12.02;7.18;;;-1.60;99.90;;;;;;5042757;28;20087;-67
2023/11/29 07:01:21;;;;;;;10.75;6.68;;;-1.60;99.90;;;;;;5042483;28;20076;-66
2023/11/29 07:03:53;;;;;;;12.80;7.65;;;-1.60;99.90;;;;;;5043030;28;20501;-67
2023/11/29 07:06:26;;;;;;;15.32;7.43;;;-1.60;99.90;;;;;;5054417;28;20510;-67
2023/11/29 07:08:53;;;;;;;12.38;7.20;;;-1.60;99.90;;;;;;5032691;28;20044;-67
2023/11/29 07:11:25;;;;;;;13.68;7.72;;;-1.50;99.90;;;;;;5050048;28;20059;-69
2023/11/29 07:13:57;;;;;;;15.43;11.02;;;-1.50;99.90;;;;;;5045048;28;20037;-67
2023/11/29 07:16:29;;;;;;;12.43;7.00;;;-1.50;99.90;;;;;;5043794;28;20041;-66
2023/11/29 07:19:01;;;;;;;10.32;5.90;;;-1.40;99.90;;;;;;5053084;28;20037;-67
2023/11/29 07:21:28;;;;;;;9.93;6.35;;;-1.30;99.90;;;;;;5056602;28;20569;-66
2023/11/29 07:23:59;;;;;;;9.35;5.68;;;-1.30;99.90;;;;;;5041559;28;20048;-67
2023/11/29 07:26:31;;;;;;;9.48;5.53;;;-1.20;99.90;;;;;;5042746;28;20052;-67
2023/11/29 07:29:04;;;;;;;10.25;5.75;;;-1.20;99.90;;;;;;5038923;28;20037;-67
2023/11/29 07:31:36;;;;;;;9.77;6.53;;;-1.20;99.90;;;;;;5057106;28;20119;-67
2023/11/29 07:34:03;;;;;;;9.55;6.65;;;-1.20;99.90;;;;;;5054862;28;20517;-67
2023/11/29 07:36:34;;;;;;;9.65;6.65;;;-1.10;99.90;;;;;;5064365;28;20044;-67
2023/11/29 07:39:06;;;;;;;10.82;6.28;;;-1.10;99.90;;;;;;5057554;28;20041;-66
2023/11/29 07:41:38;;;;;;;9.02;5.90;;;-1.10;99.90;;;;;;5064026;28;20103;-66
2023/11/29 07:44:12;;;;;;;8.65;5.20;;;-1.10;99.90;;;;;;5039725;28;20051;-67
2023/11/29 07:46:44;;;;;;;11.93;7.03;;;-1.10;99.90;;;;;;5046500;28;20426;-67
2023/11/29 07:49:12;;;;;;;9.63;5.15;;;-1.00;99.90;;;;;;5049161;28;20137;-67
2023/11/29 07:51:44;;;;;;;8.73;5.93;;;-1.00;99.90;;;;;;5036496;28;20085;-67
2023/11/29 07:54:12;;;;;;;9.15;5.80;;;-1.00;99.90;;;;;;5029076;28;20060;-67
2023/11/29 07:56:44;;;;;;;9.25;5.45;;;-0.90;99.90;;;;;;5060034;28;20048;-67
2023/11/29 07:59:15;;;;;;;8.68;5.75;;;-1.00;99.90;;;;;;5046322;28;20139;-66
2023/11/29 08:01:47;;;;;;;9.43;6.38;;;-0.90;99.90;;;;;;5046589;28;20052;-67
2023/11/29 08:04:19;;;;;;;9.63;5.50;;;-0.90;99.90;;;;;;5048342;28;20052;-67
2023/11/29 08:06:51;;;;;;;8.48;5.35;;;-0.90;99.90;;;;;;5038331;28;20052;-67
2023/11/29 08:09:19;;;;;;;9.02;5.80;;;-0.90;99.90;;;;;;5055120;28;20037;-67
2023/11/29 08:11:51;;;;;;;8.45;5.40;;;-0.90;99.90;;;;;;5039140;28;20036;-67
2023/11/29 08:14:22;;;;;;;9.43;5.38;;;-0.80;99.90;;;;;;5054139;28;20049;-67
2023/11/29 08:16:54;;;;;;;9.50;5.50;;;-0.80;99.90;;;;;;5029636;28;20063;-67
2023/11/29 08:19:26;;;;;;;9.15;5.78;;;-0.80;99.90;;;;;;5055836;28;20029;-67
2023/11/29 08:22:01;;;;;;;8.10;5.72;;;-0.70;99.90;;;;;;5039366;28;20041;-68
2023/11/29 08:24:34;;;;;;;9.77;5.35;;;-0.70;99.90;;;;;;5052774;28;20055;-67
2023/11/29 08:27:01;;;;;;;8.80;5.97;;;-0.70;99.90;;;;;;5062052;28;20040;-67
2023/11/29 08:29:33;;;;;;;9.18;5.28;;;-0.70;99.90;;;;;;5023440;28;20044;-67
2023/11/29 08:31:59;;;;;;;7.28;4.70;;;-0.70;99.90;;;;;;5047972;28;20050;-67
2023/11/29 08:34:31;;;;;;;8.18;4.70;;;-0.70;99.90;;;;;;5056668;28;20107;-67
2023/11/29 08:37:03;;;;;;;8.35;5.25;;;-0.60;99.90;;;;;;5057302;28;20128;-67
2023/11/29 08:39:36;;;;;;;9.80;5.22;;;-0.50;99.90;;;;;;5042389;28;20781;-67
2023/11/29 08:42:07;;;;;;;7.85;4.70;;;-0.50;99.90;;;;;;5055118;28;20041;-67
2023/11/29 08:44:39;;;;;;;7.75;4.65;;;-0.50;99.90;;;;;;5063691;28;20037;-66
2023/11/29 08:47:11;;;;;;;7.18;4.63;;;-0.50;99.90;;;;;;5023909;28;20098;-67
2023/11/29 08:49:42;;;;;;;6.68;4.35;;;-0.40;99.90;;;;;;5021355;28;20056;-67
2023/11/29 08:52:15;;;;;;;7.50;4.65;;;-0.40;99.90;;;;;;5059813;28;20055;-67
2023/11/29 08:54:50;;;;;;;7.28;4.18;;;-0.40;99.90;;;;;;5058238;28;20033;-68
2023/11/29 08:57:20;;;;;;;6.32;4.30;;;-0.40;99.90;;;;;;5063144;28;20051;-67
2023/11/29 08:59:47;;;;;;;6.47;4.38;;;-0.40;99.90;;;;;;5059599;28;20041;-67
2023/11/29 09:02:21;;;;;;;6.40;4.63;;;-0.30;99.90;;;;;;5058640;28;20051;-67
2023/11/29 09:04:49;;;;;;;6.75;4.13;;;-0.30;99.90;;;;;;5056060;28;20041;-66
2023/11/29 09:07:21;;;;;;;6.22;4.28;;;-0.30;99.90;;;;;;5055660;28;20409;-67
2023/11/29 09:09:55;;;;;;;6.53;4.68;;;-0.20;99.90;;;;;;5055411;28;20037;-68
2023/11/29 09:12:26;;;;;;;6.32;4.70;;;-0.20;99.90;;;;;;5037332;28;20064;-68
2023/11/29 09:14:59;;;;;;;7.20;4.60;;;-0.10;99.90;;;;;;5033198;28;20651;-67
2023/11/29 09:17:26;;;;;;;7.70;5.18;;;-0.10;99.90;;;;;;5015853;28;20033;-67
2023/11/29 09:19:58;;;;;;;5.68;4.03;;;0.00;99.90;;;;;;5036083;28;20536;-67
2023/11/29 09:22:30;;;;;;;10.43;5.07;;;0.10;99.90;;;;;;5032971;28;20033;-68
2023/11/29 09:25:03;;;;;;;7.00;4.45;;;0.10;99.90;;;;;;5058554;28;20408;-67
2023/11/29 09:27:35;;;;;;;4.28;3.25;;;0.10;99.90;;;;;;5060809;28;20405;-67
2023/11/29 09:30:08;;;;;;;6.78;4.32;;;0.20;99.90;;;;;;5060154;28;20060;-67
2023/11/29 09:32:40;;;;;;;6.75;4.30;;;0.30;99.90;;;;;;5060323;28;20033;-68
2023/11/29 09:35:12;;;;;;;5.53;4.05;;;0.30;99.90;;;;;;5044154;28;20044;-68
2023/11/29 09:37:44;;;;;;;6.97;3.92;;;0.40;99.90;;;;;;5053324;28;20047;-67
2023/11/29 09:40:16;;;;;;;5.68;3.95;;;0.40;99.90;;;;;;5058498;28;20047;-68
2023/11/29 09:42:49;;;;;;;4.97;3.97;;;0.40;99.90;;;;;;5068440;28;20075;-68
2023/11/29 09:45:22;;;;;;;6.85;4.60;;;0.60;99.90;;;;;;5055376;28;20037;-68
2023/11/29 09:47:57;;;;;;;5.95;4.28;;;0.70;99.90;;;;;;5055924;28;20205;-68
2023/11/29 09:50:31;;;;;;;7.05;4.82;;;0.70;99.90;;;;;;5046501;28;20501;-67
2023/11/29 09:52:59;;;;;;;6.90;4.18;;;0.70;99.90;;;;;;5035481;28;20048;-67
2023/11/29 09:55:32;;;;;;;5.22;4.00;;;0.70;99.90;;;;;;5043127;28;20037;-67
2023/11/29 09:57:59;;;;;;;5.38;4.07;;;0.70;99.90;;;;;;5042327;28;20051;-67
2023/11/29 10:00:32;;;;;;;4.97;3.67;;;0.70;99.90;;;;;;5057753;28;20052;-67
2023/11/29 10:03:12;;;;;;;5.28;3.92;;;0.70;99.90;;;;;;5043807;28;20048;-67
2023/11/29 10:05:49;;;;;;;6.47;4.22;;;0.80;99.90;;;;;;5042659;28;20064;-68
2023/11/29 10:08:21;;;;;;;5.20;3.45;;;0.80;99.90;;;;;;5041337;28;20124;-68
2023/11/29 10:10:54;;;;;;;5.53;4.20;;;0.90;99.90;;;;;;5041581;28;20033;-69
2023/11/29 10:13:28;;;;;;;5.55;3.85;;;0.90;99.90;;;;;;5034144;28;20406;-67
2023/11/29 10:16:00;;;;;;;6.35;4.20;;;0.90;99.90;;;;;;5028692;28;20593;-67
2023/11/29 10:18:27;;;;;;;6.30;4.40;;;0.90;99.90;;;;;;5052073;28;20056;-67
2023/11/29 10:20:59;;;;;;;6.72;4.43;;;1.00;99.90;;;;;;5032411;28;20065;-67
2023/11/29 10:23:31;;;;;;;6.22;4.53;;;1.00;99.90;;;;;;5036656;28;20048;-67
2023/11/29 10:26:09;;;;;;;5.80;4.07;;;1.10;99.90;;;;;;5028297;28;20050;-67
2023/11/29 10:28:41;;;;;;;6.93;4.35;;;1.10;99.90;;;;;;5057369;28;20044;-67
2023/11/29 10:31:08;;;;;;;4.97;3.92;;;1.10;99.90;;;;;;5041084;28;20059;-67
2023/11/29 10:33:39;;;;;;;5.57;4.18;;;1.10;99.90;;;;;;5059640;28;20045;-65
2023/11/29 10:36:11;;;;;;;5.15;3.53;;;1.20;99.90;;;;;;5032817;28;20041;-67
2023/11/29 10:38:53;;;;;;;5.78;4.18;;;1.30;99.90;;;;;;5034739;28;20049;-67
2023/11/29 10:41:28;;;;;;;4.95;3.55;;;1.30;99.90;;;;;;5041757;28;20118;-67
2023/11/29 10:43:59;;;;;;;5.63;4.18;;;1.30;99.90;;;;;;5058314;28;20735;-67
2023/11/29 10:46:32;;;;;;;5.63;3.50;;;1.30;99.90;;;;;;5049553;28;20048;-67
2023/11/29 10:49:22;;;;;;;5.55;3.70;;;1.30;99.90;;;;;;5032751;28;20044;-67
2023/11/29 10:51:56;;;;;;;5.07;3.47;;;1.40;99.90;;;;;;5041110;28;20460;-66
2023/11/29 10:54:24;;;;;;;4.65;3.40;;;1.30;99.90;;;;;;5054613;28;20047;-69
2023/11/29 10:56:57;;;;;;;;;;;1.30;99.90;;;;;;5053617;28;20060;-67
2023/11/29 10:59:34;;;;;;;5.40;3.97;;;1.30;99.90;;;;;;5028460;28;20016;-65
2023/11/29 11:02:01;;;;;;;5.73;3.73;;;1.30;99.90;;;;;;5037751;28;20040;-67
2023/11/29 11:04:35;;;;;;;4.55;3.78;;;1.40;99.90;;;;;;5040304;28;20062;-67
2023/11/29 11:07:27;;;;;;;;;;;1.40;99.90;;;;;;5054727;28;20049;-67
2023/11/29 11:10:01;;;;;;;5.43;3.42;;;1.50;99.90;;;;;;5048827;28;19920;-67
2023/11/29 11:12:34;;;;;;;7.00;3.92;;;1.60;99.90;;;;;;5036497;28;20119;-67
2023/11/29 11:15:09;;;;;;;4.28;3.50;;;1.80;99.90;;;;;;5056427;28;20507;-67
2023/11/29 11:18:06;;;;;;;5.57;3.40;;;1.90;99.90;;;;;;5033856;28;20049;-68
2023/11/29 11:21:05;;;;;;;4.63;3.10;;;2.00;99.90;;;;;;5035468;28;20037;-67
2023/11/29 11:23:40;;;;;;;6.57;4.00;;;2.10;99.90;;;;;;5040658;28;20075;-67
2023/11/29 11:26:13;;;;;;;4.45;3.63;;;2.30;99.90;;;;;;5039658;28;20048;-67
2023/11/29 11:28:45;;;;;;;5.43;3.60;;;2.30;99.90;;;;;;5032674;28;20045;-67
2023/11/29 11:31:18;;;;;;;5.18;3.33;;;2.40;99.90;;;;;;5057207;28;20321;-68
2023/11/29 11:33:52;;;;;;;4.90;3.67;;;2.50;99.90;;;;;;5044973;28;20143;-68
2023/11/29 11:36:26;;;;;;;4.68;3.42;;;2.50;99.90;;;;;;5029416;28;20041;-67
2023/11/29 11:38:59;;;;;;;4.80;3.08;;;2.40;99.90;;;;;;5059706;28;20150;-68
2023/11/29 11:41:33;;;;;;;5.18;3.85;;;2.40;99.90;;;;;;5039413;28;20503;-67
2023/11/29 11:44:00;;;;;;;5.40;4.07;;;2.30;99.90;;;;;;5052572;28;20045;-68
2023/11/29 11:46:32;;;;;;;5.43;3.60;;;2.20;99.90;;;;;;5030294;28;20044;-67
2023/11/29 11:49:04;;;;;;;4.68;3.35;;;2.20;99.90;;;;;;5032275;28;20061;-67
2023/11/29 11:51:36;;;;;;;5.43;3.75;;;2.30;99.90;;;;;;5048444;28;20128;-67
2023/11/29 11:54:04;;;;;;;4.75;3.22;;;2.30;99.90;;;;;;5047157;28;20045;-68
2023/11/29 11:56:36;;;;;;;5.17;3.77;;;2.40;99.90;;;;;;5037701;28;20033;-68
2023/11/29 11:59:08;;;;;;;5.75;3.83;;;2.40;99.90;;;;;;5057371;28;20298;-67
2023/11/29 12:01:35;;;;;;;5.55;4.00;;;2.50;99.90;;;;;;5056875;28;20473;-66
2023/11/29 12:04:07;;;;;;;6.15;3.38;;;2.50;99.90;;;;;;5036054;28;20040;-67
2023/11/29 12:06:38;;;;;;;4.78;3.63;;;2.60;99.90;;;;;;5059386;28;20045;-67
2023/11/29 12:09:11;;;;;;;5.82;3.30;;;2.60;99.90;;;;;;5056425;28;20036;-66
2023/11/29 12:11:45;;;;;;;4.30;3.08;;;2.70;99.90;;;;;;5037220;28;20048;-67
2023/11/29 12:14:17;;;;;;;5.20;3.70;;;2.70;99.90;;;;;;5057031;28;20492;-66
2023/11/29 12:16:51;;;;;;;5.63;3.40;;;2.70;99.90;;;;;;5031705;28;20033;-66
2023/11/29 12:19:23;;;;;;;5.45;3.85;;;2.60;99.90;;;;;;5047663;28;20516;-67
2023/11/29 12:21:50;;;;;;;4.70;3.80;;;2.70;99.90;;;;;;5030087;28;20515;-66
2023/11/29 12:24:22;;;;;;;6.03;3.33;;;2.70;99.90;;;;;;5035498;28;20068;-67
2023/11/29 12:27:08;;;;;;;4.40;3.30;;;2.70;99.90;;;;;;5033747;28;20517;-67
2023/11/29 12:29:47;;;;;;;5.93;3.75;;;2.80;99.90;;;;;;5057514;28;20045;-67
2023/11/29 12:32:17;;;;;;;6.10;3.42;;;2.80;99.90;;;;;;5030332;28;20044;-67
2023/11/29 12:34:49;;;;;;;4.55;3.20;;;2.80;99.90;;;;;;5045422;28;20032;-67
2023/11/29 12:37:21;;;;;;;4.85;3.30;;;2.80;99.90;;;;;;5027581;28;20041;-67
2023/11/29 12:39:48;;;;;;;5.00;3.33;;;2.70;99.90;;;;;;5030023;28;20045;-67
2023/11/29 12:42:20;;;;;;;4.55;3.45;;;2.70;99.90;;;;;;5036541;28;20045;-67
2023/11/29 12:44:52;;;;;;;6.13;3.88;;;2.60;99.90;;;;;;5056728;28;20045;-66
2023/11/29 12:47:24;;;;;;;5.47;3.53;;;2.50;99.90;;;;;;5058774;28;20045;-66
2023/11/29 12:49:56;;;;;;;5.43;3.40;;;2.50;99.90;;;;;;5053703;28;20067;-67
2023/11/29 12:52:23;;;;;;;5.10;3.50;;;2.40;99.90;;;;;;5028334;28;20045;-66
2023/11/29 12:54:55;;;;;;;4.32;3.38;;;2.40;99.90;;;;;;5025730;28;20056;-67
2023/11/29 12:57:28;;;;;;;4.28;3.33;;;2.40;99.90;;;;;;5060354;28;20106;-67
2023/11/29 12:59:55;;;;;;;4.53;3.10;;;2.40;99.90;;;;;;5041778;28;20427;-66
2023/11/29 13:02:27;;;;;;;4.28;3.03;;;2.40;99.90;;;;;;5024554;28;20037;-67
2023/11/29 13:04:59;;;;;;;3.58;2.70;;;2.40;99.90;;;;;;5040781;28;20048;-66